Terminal Aerodrome Forecast
Issued by NWS Shreveport, LA

Home | Current Version | Previous Version | Text Only | Print | Product List | Glossary On
Versions: 1 2 3 4 5 6 7 8 9 10 11 12 13 14 15 16 17 18 19 20
011
FTUS44 KSHV 231720
TAFTXK
TAF
KTXK 231720Z 2318/2418 30010KT P6SM BKN025
      TEMPO 2318/2322 SCT025 BKN035
     FM232200 31010KT P6SM BKN035
     FM240600 29004KT P6SM SKC
     FM241500 35007KT P6SM SKC=

USA.gov is the U.S. government's official web portal to all federal, state and local government web resources and services.